EAG5501 SBGR-SBVT
Flight info
| Callsign | EAG5501 |
|---|---|
| Flight time | 1h 1m |
| Altitude | 39000 |
| Route | UREMI UZ42 IMDAB DCT SEGLI DCT TODET |
| Aircraft | B738/M-SDE1FGHILORVWXY/HB1 |
Departure
| Time | 2026-05-05 13:01 |
|---|---|
| Airport | São Paulo/Guarulhos–Governor André Franco Montoro International Airport (SBGR) |
Arrival
| Time | 2026-05-05 14:02 |
|---|---|
| Airport | Eurico de Aguiar Salles International Airport (SBVT) |
| Time | Latitude | Longitude | Altitude | Speed | Heading |
|---|---|---|---|---|---|
| 2026-05-05 12:54 | -23.43048 | -46.48678 | 2464 ft | 0 kts | 95° |
| 2026-05-05 12:55 | -23.43047 | -46.48688 | 2464 ft | 4 kts | 95° |
| 2026-05-05 12:55 | -23.43045 | -46.48717 | 2464 ft | 4 kts | 89° |
| 2026-05-05 12:55 | -23.43049 | -46.48746 | 2464 ft | 4 kts | 70° |
| 2026-05-05 12:55 | -23.43063 | -46.48768 | 2466 ft | 4 kts | 31° |
| 2026-05-05 12:56 | -23.43076 | -46.48773 | 2464 ft | 1 kts | 5° |
| 2026-05-05 12:56 | -23.43078 | -46.48773 | 2464 ft | 0 kts | 5° |
| 2026-05-05 12:58 | -23.43065 | -46.48772 | 2465 ft | 7 kts | 5° |
| 2026-05-05 12:59 | -23.42991 | -46.48745 | 2464 ft | 14 kts | 59° |
| 2026-05-05 12:59 | -23.42989 | -46.48633 | 2464 ft | 16 kts | 95° |
| 2026-05-05 12:59 | -23.43000 | -46.48511 | 2469 ft | 17 kts | 96° |
| 2026-05-05 13:00 | -23.43200 | -46.48398 | 2466 ft | 18 kts | 163° |
| 2026-05-05 13:00 | -23.43325 | -46.48358 | 2465 ft | 19 kts | 163° |
| 2026-05-05 13:01 | -23.43299 | -46.47861 | 2463 ft | 85 kts | 73° |
| 2026-05-05 13:01 | -23.43058 | -46.46967 | 2465 ft | 157 kts | 73° |
| 2026-05-05 13:01 | -23.42700 | -46.45648 | 2645 ft | 203 kts | 73° |
| 2026-05-05 13:01 | -23.42275 | -46.44127 | 3663 ft | 203 kts | 71° |
| 2026-05-05 13:02 | -23.41847 | -46.42663 | 4648 ft | 211 kts | 71° |
| 2026-05-05 13:02 | -23.41383 | -46.41074 | 5139 ft | 235 kts | 71° |
| 2026-05-05 13:02 | -23.40854 | -46.39263 | 5639 ft | 261 kts | 72° |
| 2026-05-05 13:02 | -23.40315 | -46.37308 | 6395 ft | 278 kts | 79° |
| 2026-05-05 13:03 | -23.40393 | -46.35192 | 7309 ft | 279 kts | 107° |
| 2026-05-05 13:03 | -23.41014 | -46.33203 | 8332 ft | 283 kts | 109° |
| 2026-05-05 13:03 | -23.41653 | -46.31160 | 9318 ft | 287 kts | 110° |
| 2026-05-05 13:03 | -23.42311 | -46.29094 | 10320 ft | 290 kts | 110° |
| 2026-05-05 13:04 | -23.42995 | -46.26973 | 10995 ft | 304 kts | 110° |
| 2026-05-05 13:04 | -23.43721 | -46.24719 | 11423 ft | 325 kts | 108° |
| 2026-05-05 13:04 | -23.44185 | -46.22228 | 11797 ft | 346 kts | 100° |
| 2026-05-05 13:04 | -23.44600 | -46.19622 | 12214 ft | 362 kts | 101° |
| 2026-05-05 13:05 | -23.45060 | -46.16881 | 12815 ft | 370 kts | 101° |
| 2026-05-05 13:05 | -23.45538 | -46.14118 | 13608 ft | 373 kts | 102° |
| 2026-05-05 13:05 | -23.46029 | -46.11326 | 14309 ft | 376 kts | 102° |
| 2026-05-05 13:05 | -23.46521 | -46.08546 | 14930 ft | 380 kts | 102° |
| 2026-05-05 13:06 | -23.47026 | -46.05696 | 15534 ft | 384 kts | 102° |
| 2026-05-05 13:06 | -23.47537 | -46.02822 | 16135 ft | 388 kts | 102° |
| 2026-05-05 13:06 | -23.48052 | -45.99911 | 16738 ft | 392 kts | 102° |
| 2026-05-05 13:06 | -23.48571 | -45.96983 | 17322 ft | 396 kts | 102° |
| 2026-05-05 13:07 | -23.48936 | -45.94035 | 17846 ft | 402 kts | 91° |
| 2026-05-05 13:07 | -23.48548 | -45.90998 | 18452 ft | 406 kts | 77° |
| 2026-05-05 13:07 | -23.47871 | -45.87994 | 18900 ft | 411 kts | 77° |
| 2026-05-05 13:07 | -23.47164 | -45.84961 | 19382 ft | 414 kts | 77° |
| 2026-05-05 13:08 | -23.46435 | -45.81907 | 19849 ft | 417 kts | 77° |
| 2026-05-05 13:08 | -23.45699 | -45.78876 | 20304 ft | 420 kts | 77° |
| 2026-05-05 13:08 | -23.44941 | -45.75775 | 20774 ft | 423 kts | 77° |
| 2026-05-05 13:08 | -23.44180 | -45.72670 | 21249 ft | 426 kts | 77° |
| 2026-05-05 13:09 | -23.43408 | -45.69528 | 21707 ft | 429 kts | 77° |
| 2026-05-05 13:09 | -23.42636 | -45.66386 | 22160 ft | 432 kts | 77° |
| 2026-05-05 13:09 | -23.41862 | -45.63241 | 22614 ft | 435 kts | 77° |
| 2026-05-05 13:09 | -23.41075 | -45.60046 | 23086 ft | 438 kts | 77° |
| 2026-05-05 13:10 | -23.40282 | -45.56831 | 23512 ft | 441 kts | 77° |
| 2026-05-05 13:10 | -23.39492 | -45.53629 | 23951 ft | 443 kts | 77° |
| 2026-05-05 13:10 | -23.38745 | -45.50362 | 24297 ft | 446 kts | 79° |
| 2026-05-05 13:10 | -23.38047 | -45.47064 | 24654 ft | 449 kts | 79° |
| 2026-05-05 13:11 | -23.37335 | -45.43750 | 25028 ft | 452 kts | 79° |
| 2026-05-05 13:11 | -23.36614 | -45.40411 | 25398 ft | 455 kts | 79° |
| 2026-05-05 13:11 | -23.35885 | -45.37040 | 25759 ft | 458 kts | 79° |
| 2026-05-05 13:11 | -23.35152 | -45.33653 | 26135 ft | 461 kts | 79° |
| 2026-05-05 13:12 | -23.34420 | -45.30246 | 26478 ft | 464 kts | 79° |
| 2026-05-05 13:12 | -23.33684 | -45.26809 | 26828 ft | 467 kts | 79° |
| 2026-05-05 13:12 | -23.32950 | -45.23391 | 27161 ft | 470 kts | 79° |
| 2026-05-05 13:12 | -23.32204 | -45.19915 | 27499 ft | 473 kts | 79° |
| 2026-05-05 13:13 | -23.31450 | -45.16411 | 27841 ft | 476 kts | 78° |
| 2026-05-05 13:13 | -23.30692 | -45.12894 | 28169 ft | 479 kts | 78° |
| 2026-05-05 13:13 | -23.29937 | -45.09389 | 28486 ft | 482 kts | 78° |
| 2026-05-05 13:13 | -23.29168 | -45.05826 | 28805 ft | 485 kts | 78° |
| 2026-05-05 13:14 | -23.28395 | -45.02248 | 29112 ft | 488 kts | 78° |
| 2026-05-05 13:14 | -23.27615 | -44.98645 | 29438 ft | 490 kts | 78° |
| 2026-05-05 13:14 | -23.26832 | -44.95032 | 29843 ft | 490 kts | 78° |
| 2026-05-05 13:14 | -23.26049 | -44.91421 | 30289 ft | 490 kts | 78° |
| 2026-05-05 13:15 | -23.25265 | -44.87810 | 30679 ft | 490 kts | 78° |
| 2026-05-05 13:15 | -23.24490 | -44.84244 | 31075 ft | 490 kts | 78° |
| 2026-05-05 13:15 | -23.23706 | -44.80638 | 31491 ft | 489 kts | 78° |
| 2026-05-05 13:15 | -23.22919 | -44.77031 | 31908 ft | 488 kts | 78° |
| 2026-05-05 13:16 | -23.22134 | -44.73428 | 32306 ft | 488 kts | 78° |
| 2026-05-05 13:16 | -23.21360 | -44.69886 | 32696 ft | 488 kts | 78° |
| 2026-05-05 13:16 | -23.20572 | -44.66279 | 33078 ft | 488 kts | 78° |
| 2026-05-05 13:16 | -23.19755 | -44.62690 | 33467 ft | 488 kts | 73° |
| 2026-05-05 13:17 | -23.18473 | -44.59281 | 33851 ft | 488 kts | 67° |
| 2026-05-05 13:17 | -23.17129 | -44.55926 | 34189 ft | 489 kts | 68° |
| 2026-05-05 13:17 | -23.15781 | -44.52524 | 34485 ft | 489 kts | 68° |
| 2026-05-05 13:17 | -23.14431 | -44.49129 | 34755 ft | 489 kts | 68° |
| 2026-05-05 13:18 | -23.13076 | -44.45726 | 35022 ft | 490 kts | 68° |
| 2026-05-05 13:18 | -23.11736 | -44.42367 | 35281 ft | 490 kts | 68° |
| 2026-05-05 13:18 | -23.10379 | -44.38964 | 35574 ft | 490 kts | 68° |
| 2026-05-05 13:18 | -23.09023 | -44.35567 | 35833 ft | 491 kts | 68° |
| 2026-05-05 13:19 | -23.07664 | -44.32167 | 36078 ft | 491 kts | 68° |
| 2026-05-05 13:19 | -23.06296 | -44.28746 | 36328 ft | 491 kts | 68° |
| 2026-05-05 13:19 | -23.04948 | -44.25377 | 36570 ft | 492 kts | 68° |
| 2026-05-05 13:19 | -23.03583 | -44.21965 | 36693 ft | 495 kts | 68° |
| 2026-05-05 13:20 | -23.02197 | -44.18506 | 36815 ft | 497 kts | 68° |
| 2026-05-05 13:20 | -23.00813 | -44.15055 | 37075 ft | 497 kts | 68° |
| 2026-05-05 13:20 | -22.99432 | -44.11615 | 37239 ft | 499 kts | 68° |
| 2026-05-05 13:20 | -22.98042 | -44.08155 | 37208 ft | 498 kts | 68° |
| 2026-05-05 13:21 | -22.95298 | -44.01329 | 37238 ft | 497 kts | 67° |
| 2026-05-05 13:21 | -22.92528 | -43.94448 | 37210 ft | 496 kts | 67° |
| 2026-05-05 13:22 | -22.89753 | -43.87569 | 37204 ft | 497 kts | 67° |
| 2026-05-05 13:22 | -22.86996 | -43.80742 | 37214 ft | 497 kts | 67° |
| 2026-05-05 13:23 | -22.84221 | -43.73880 | 37210 ft | 497 kts | 67° |
| 2026-05-05 13:23 | -22.81454 | -43.67047 | 37212 ft | 497 kts | 67° |
| 2026-05-05 13:24 | -22.78675 | -43.60196 | 37221 ft | 496 kts | 67° |
| 2026-05-05 13:24 | -22.75890 | -43.53338 | 37214 ft | 496 kts | 67° |
| 2026-05-05 13:25 | -22.73115 | -43.46517 | 37214 ft | 497 kts | 67° |
| 2026-05-05 13:25 | -22.70321 | -43.39659 | 37217 ft | 496 kts | 67° |
| 2026-05-05 13:26 | -22.67534 | -43.32827 | 37215 ft | 496 kts | 67° |
| 2026-05-05 13:26 | -22.64751 | -43.26015 | 37208 ft | 496 kts | 67° |
| 2026-05-05 13:27 | -22.61966 | -43.19208 | 37222 ft | 497 kts | 67° |
| 2026-05-05 13:27 | -22.59168 | -43.12379 | 37242 ft | 496 kts | 67° |
| 2026-05-05 13:28 | -22.56371 | -43.05562 | 37229 ft | 496 kts | 67° |
| 2026-05-05 13:28 | -22.54033 | -42.99873 | 37251 ft | 496 kts | 67° |
| 2026-05-05 13:29 | -22.51226 | -42.93051 | 37244 ft | 496 kts | 66° |
| 2026-05-05 13:29 | -22.48436 | -42.86277 | 37235 ft | 496 kts | 66° |
| 2026-05-05 13:30 | -22.45618 | -42.79448 | 37240 ft | 496 kts | 66° |
| 2026-05-05 13:30 | -22.42806 | -42.72641 | 37260 ft | 495 kts | 66° |
| 2026-05-05 13:31 | -22.40008 | -42.65879 | 37254 ft | 495 kts | 66° |
| 2026-05-05 13:31 | -22.37196 | -42.59091 | 37262 ft | 495 kts | 66° |
| 2026-05-05 13:32 | -22.34377 | -42.52293 | 37243 ft | 494 kts | 66° |
| 2026-05-05 13:32 | -22.31575 | -42.45548 | 37262 ft | 495 kts | 66° |
| 2026-05-05 13:33 | -22.28378 | -42.39003 | 37250 ft | 492 kts | 51° |
| 2026-05-05 13:33 | -22.24247 | -42.33116 | 37221 ft | 493 kts | 52° |
| 2026-05-05 13:34 | -22.20098 | -42.27196 | 37276 ft | 494 kts | 52° |
| 2026-05-05 13:34 | -22.15936 | -42.21290 | 37267 ft | 494 kts | 52° |
| 2026-05-05 13:35 | -22.11807 | -42.15435 | 37263 ft | 493 kts | 52° |
| 2026-05-05 13:35 | -22.07644 | -42.09539 | 37243 ft | 493 kts | 52° |
| 2026-05-05 13:36 | -22.03482 | -42.03650 | 37247 ft | 494 kts | 52° |
| 2026-05-05 13:36 | -21.99339 | -41.97794 | 37258 ft | 493 kts | 52° |
| 2026-05-05 13:37 | -21.95176 | -41.91918 | 37229 ft | 493 kts | 52° |
| 2026-05-05 13:37 | -21.91000 | -41.86028 | 37261 ft | 494 kts | 52° |
| 2026-05-05 13:38 | -21.86860 | -41.80197 | 37252 ft | 493 kts | 51° |
| 2026-05-05 13:38 | -21.82695 | -41.74336 | 37264 ft | 492 kts | 51° |
| 2026-05-05 13:39 | -21.78522 | -41.68470 | 37227 ft | 492 kts | 52° |
| 2026-05-05 13:39 | -21.74377 | -41.62649 | 37230 ft | 493 kts | 51° |
| 2026-05-05 13:40 | -21.70214 | -41.56811 | 36435 ft | 492 kts | 51° |
| 2026-05-05 13:40 | -21.68102 | -41.53851 | 35444 ft | 499 kts | 51° |
| 2026-05-05 13:40 | -21.66045 | -41.50970 | 34766 ft | 490 kts | 51° |
| 2026-05-05 13:41 | -21.63965 | -41.48057 | 33672 ft | 489 kts | 52° |
| 2026-05-05 13:41 | -21.61892 | -41.45155 | 32564 ft | 487 kts | 52° |
| 2026-05-05 13:41 | -21.59839 | -41.42283 | 31720 ft | 480 kts | 52° |
| 2026-05-05 13:41 | -21.57826 | -41.39471 | 31070 ft | 469 kts | 52° |
| 2026-05-05 13:42 | -21.55823 | -41.36672 | 30386 ft | 477 kts | 53° |
| 2026-05-05 13:42 | -21.53799 | -41.33846 | 29397 ft | 483 kts | 53° |
| 2026-05-05 13:42 | -21.51748 | -41.30983 | 28462 ft | 486 kts | 53° |
| 2026-05-05 13:42 | -21.49621 | -41.28148 | 27519 ft | 488 kts | 46° |
| 2026-05-05 13:43 | -21.47053 | -41.25755 | 26561 ft | 491 kts | 39° |
| 2026-05-05 13:43 | -21.44445 | -41.23413 | 25931 ft | 495 kts | 40° |
| 2026-05-05 13:43 | -21.41782 | -41.21037 | 25227 ft | 495 kts | 39° |
| 2026-05-05 13:43 | -21.39133 | -41.18692 | 24512 ft | 491 kts | 39° |
| 2026-05-05 13:44 | -21.36500 | -41.16367 | 23784 ft | 487 kts | 39° |
| 2026-05-05 13:44 | -21.33935 | -41.14104 | 22942 ft | 484 kts | 39° |
| 2026-05-05 13:44 | -21.31347 | -41.11823 | 22187 ft | 480 kts | 39° |
| 2026-05-05 13:44 | -21.28768 | -41.09554 | 21445 ft | 476 kts | 39° |
| 2026-05-05 13:45 | -21.26230 | -41.07320 | 20869 ft | 469 kts | 39° |
| 2026-05-05 13:45 | -21.23717 | -41.05110 | 20172 ft | 465 kts | 39° |
| 2026-05-05 13:45 | -21.21227 | -41.02921 | 19593 ft | 459 kts | 39° |
| 2026-05-05 13:45 | -21.18765 | -41.00757 | 18793 ft | 459 kts | 39° |
| 2026-05-05 13:46 | -21.16309 | -40.98602 | 17975 ft | 448 kts | 39° |
| 2026-05-05 13:46 | -21.13931 | -40.96514 | 17002 ft | 438 kts | 39° |
| 2026-05-05 13:46 | -21.11646 | -40.94508 | 16687 ft | 417 kts | 39° |
| 2026-05-05 13:46 | -21.09400 | -40.92538 | 16061 ft | 416 kts | 39° |
| 2026-05-05 13:47 | -21.07168 | -40.90581 | 15417 ft | 420 kts | 39° |
| 2026-05-05 13:47 | -21.04894 | -40.88587 | 14703 ft | 422 kts | 39° |
| 2026-05-05 13:47 | -21.02625 | -40.86598 | 14136 ft | 419 kts | 39° |
| 2026-05-05 13:47 | -21.00368 | -40.84621 | 13471 ft | 417 kts | 39° |
| 2026-05-05 13:48 | -20.98170 | -40.82696 | 12809 ft | 407 kts | 39° |
| 2026-05-05 13:48 | -20.96018 | -40.80812 | 12320 ft | 389 kts | 39° |
| 2026-05-05 13:48 | -20.93997 | -40.79044 | 12145 ft | 365 kts | 39° |
| 2026-05-05 13:48 | -20.92081 | -40.77369 | 11904 ft | 346 kts | 39° |
| 2026-05-05 13:49 | -20.90265 | -40.75781 | 11702 ft | 328 kts | 39° |
| 2026-05-05 13:49 | -20.88562 | -40.74292 | 11541 ft | 310 kts | 39° |
| 2026-05-05 13:49 | -20.86935 | -40.72870 | 11375 ft | 293 kts | 39° |
| 2026-05-05 13:49 | -20.85397 | -40.71527 | 11237 ft | 277 kts | 40° |
| 2026-05-05 13:50 | -20.83926 | -40.70241 | 11102 ft | 271 kts | 39° |
| 2026-05-05 13:50 | -20.82421 | -40.68927 | 11008 ft | 284 kts | 39° |
| 2026-05-05 13:50 | -20.80910 | -40.67565 | 10850 ft | 289 kts | 46° |
| 2026-05-05 13:50 | -20.79661 | -40.65870 | 10674 ft | 290 kts | 55° |
| 2026-05-05 13:51 | -20.78490 | -40.64117 | 10550 ft | 290 kts | 55° |
| 2026-05-05 13:51 | -20.77312 | -40.62366 | 10435 ft | 290 kts | 54° |
| 2026-05-05 13:51 | -20.76150 | -40.60641 | 10284 ft | 289 kts | 54° |
| 2026-05-05 13:51 | -20.74966 | -40.58884 | 10003 ft | 291 kts | 54° |
| 2026-05-05 13:52 | -20.73777 | -40.57123 | 9638 ft | 291 kts | 54° |
| 2026-05-05 13:52 | -20.72592 | -40.55368 | 9323 ft | 290 kts | 54° |
| 2026-05-05 13:52 | -20.71414 | -40.53624 | 9005 ft | 289 kts | 54° |
| 2026-05-05 13:52 | -20.70253 | -40.51907 | 8707 ft | 288 kts | 54° |
| 2026-05-05 13:53 | -20.69085 | -40.50178 | 8412 ft | 286 kts | 55° |
| 2026-05-05 13:53 | -20.67923 | -40.48459 | 8108 ft | 284 kts | 55° |
| 2026-05-05 13:53 | -20.66766 | -40.46750 | 7811 ft | 283 kts | 54° |
| 2026-05-05 13:53 | -20.65615 | -40.45048 | 7514 ft | 281 kts | 55° |
| 2026-05-05 13:54 | -20.64471 | -40.43357 | 7215 ft | 280 kts | 55° |
| 2026-05-05 13:54 | -20.63335 | -40.41679 | 6924 ft | 279 kts | 55° |
| 2026-05-05 13:54 | -20.62204 | -40.40009 | 6629 ft | 278 kts | 55° |
| 2026-05-05 13:54 | -20.61089 | -40.38363 | 6309 ft | 277 kts | 55° |
| 2026-05-05 13:55 | -20.59964 | -40.36703 | 6008 ft | 275 kts | 55° |
| 2026-05-05 13:55 | -20.58841 | -40.35046 | 5708 ft | 274 kts | 55° |
| 2026-05-05 13:55 | -20.57725 | -40.33400 | 5411 ft | 272 kts | 55° |
| 2026-05-05 13:55 | -20.56616 | -40.31764 | 5127 ft | 270 kts | 55° |
| 2026-05-05 13:56 | -20.55527 | -40.30159 | 4831 ft | 269 kts | 55° |
| 2026-05-05 13:56 | -20.54429 | -40.28540 | 4528 ft | 267 kts | 55° |
| 2026-05-05 13:56 | -20.53338 | -40.26933 | 4259 ft | 265 kts | 55° |
| 2026-05-05 13:56 | -20.52217 | -40.25457 | 4018 ft | 254 kts | 40° |
| 2026-05-05 13:57 | -20.50680 | -40.24659 | 3852 ft | 242 kts | 12° |
| 2026-05-05 13:57 | -20.49036 | -40.24647 | 3674 ft | 230 kts | 355° |
| 2026-05-05 13:57 | -20.47494 | -40.24832 | 3552 ft | 216 kts | 355° |
| 2026-05-05 13:57 | -20.46052 | -40.25018 | 3392 ft | 199 kts | 355° |
| 2026-05-05 13:58 | -20.44744 | -40.25196 | 3244 ft | 179 kts | 355° |
| 2026-05-05 13:58 | -20.43610 | -40.25339 | 3182 ft | 159 kts | 356° |
| 2026-05-05 13:58 | -20.42523 | -40.25489 | 3098 ft | 157 kts | 354° |
| 2026-05-05 13:58 | -20.41443 | -40.25650 | 2922 ft | 155 kts | 354° |
| 2026-05-05 13:59 | -20.39318 | -40.25965 | 2512 ft | 154 kts | 353° |
| 2026-05-05 13:59 | -20.38268 | -40.26120 | 2394 ft | 154 kts | 353° |
| 2026-05-05 14:00 | -20.36139 | -40.26436 | 2120 ft | 156 kts | 353° |
| 2026-05-05 14:00 | -20.35425 | -40.26542 | 2054 ft | 156 kts | 354° |
| 2026-05-05 14:00 | -20.33988 | -40.26754 | 1756 ft | 157 kts | 354° |
| 2026-05-05 14:00 | -20.32917 | -40.26933 | 1430 ft | 158 kts | 351° |
| 2026-05-05 14:01 | -20.31822 | -40.27112 | 1189 ft | 159 kts | 352° |
| 2026-05-05 14:01 | -20.30735 | -40.27261 | 835 ft | 159 kts | 353° |
| 2026-05-05 14:01 | -20.29623 | -40.27410 | 541 ft | 158 kts | 350° |
| 2026-05-05 14:01 | -20.28547 | -40.27575 | 381 ft | 156 kts | 352° |
| 2026-05-05 14:02 | -20.27480 | -40.27715 | 226 ft | 159 kts | 352° |
| 2026-05-05 14:02 | -20.26385 | -40.27881 | 54 ft | 159 kts | 353° |
| 2026-05-05 14:02 | -20.25392 | -40.28024 | 37 ft | 116 kts | 352° |
| 2026-05-05 14:02 | -20.24943 | -40.28092 | 28 ft | 4 kts | 345° |
| 2026-05-05 14:03 | -20.24928 | -40.28116 | 27 ft | 5 kts | 264° |
| 2026-05-05 14:03 | -20.24956 | -40.28140 | 28 ft | 6 kts | 210° |
| 2026-05-05 14:03 | -20.24996 | -40.28165 | 29 ft | 7 kts | 210° |
| 2026-05-05 14:03 | -20.25048 | -40.28197 | 28 ft | 11 kts | 210° |
| 2026-05-05 14:04 | -20.25129 | -40.28246 | 26 ft | 15 kts | 210° |
| 2026-05-05 14:04 | -20.25229 | -40.28309 | 26 ft | 18 kts | 212° |
| 2026-05-05 14:04 | -20.25345 | -40.28385 | 26 ft | 21 kts | 212° |
| 2026-05-05 14:04 | -20.25501 | -40.28490 | 21 ft | 33 kts | 212° |
| 2026-05-05 14:05 | -20.25701 | -40.28621 | 21 ft | 29 kts | 211° |
| 2026-05-05 14:05 | -20.25733 | -40.28724 | 19 ft | 15 kts | 302° |
| 2026-05-05 14:05 | -20.25671 | -40.28790 | 24 ft | 8 kts | 343° |
| 2026-05-05 14:05 | -20.25650 | -40.28814 | 23 ft | 0 kts | 302° |